Time;durP1;ratioP1;P1;durP2;ratioP2;P2;SDS_P1;SDS_P2;PMS_P1;PMS_P2;Temp;Humidity;BMP_temperature;BMP_pressure;BME280_temperature;BME280_humidity;BME280_pressure;Samples;Min_cycle;Max_cycle;Signal;HPM_P1;HPM_P2
2022/08/06 00:00:34;;;;;;;3.50;1.55;;;13.30;99.90;;;;;;5065582;28;20040;-70
2022/08/06 00:02:59;;;;;;;2.35;1.40;;;13.30;99.90;;;;;;5061747;28;20457;-70
2022/08/06 00:05:26;;;;;;;4.32;1.60;;;13.20;99.90;;;;;;5069718;28;20032;-70
2022/08/06 00:07:52;;;;;;;2.67;1.50;;;13.20;99.90;;;;;;5066018;28;20536;-70
2022/08/06 00:10:18;;;;;;;4.28;1.80;;;13.20;99.90;;;;;;5066205;28;20505;-70
2022/08/06 00:12:45;;;;;;;4.30;1.77;;;13.10;99.90;;;;;;5065710;28;20547;-70
2022/08/06 00:15:12;;;;;;;3.42;1.70;;;13.10;99.90;;;;;;5070019;28;20062;-70
2022/08/06 00:17:38;;;;;;;3.67;1.60;;;13.10;99.90;;;;;;5061126;28;20501;-70
2022/08/06 00:20:06;;;;;;;5.38;1.83;;;13.00;99.90;;;;;;5064317;28;20490;-70
2022/08/06 00:22:31;;;;;;;4.75;1.75;;;13.00;99.90;;;;;;5068956;28;20482;-70
2022/08/06 00:24:57;;;;;;;6.40;1.90;;;13.10;99.90;;;;;;5073811;28;20040;-70
2022/08/06 00:27:23;;;;;;;4.28;2.00;;;13.00;99.90;;;;;;5063343;28;20060;-70
2022/08/06 00:29:49;;;;;;;6.70;1.98;;;12.90;99.90;;;;;;5068682;28;20402;-70
2022/08/06 00:32:15;;;;;;;5.32;2.00;;;12.90;99.90;;;;;;5068117;28;20446;-70
2022/08/06 00:34:41;;;;;;;4.10;1.90;;;12.90;99.90;;;;;;5067306;28;20429;-70
2022/08/06 00:37:07;;;;;;;4.47;1.80;;;12.90;99.90;;;;;;5073520;28;20033;-70
2022/08/06 00:39:33;;;;;;;4.03;1.42;;;12.90;99.90;;;;;;5066644;28;20474;-70
2022/08/06 00:41:59;;;;;;;3.65;1.80;;;12.80;99.90;;;;;;5061884;28;20072;-70
2022/08/06 00:44:25;;;;;;;3.17;1.70;;;12.80;99.90;;;;;;5068279;28;20033;-70
2022/08/06 00:46:51;;;;;;;3.13;1.90;;;12.80;99.90;;;;;;5084420;28;20406;-70
2022/08/06 00:49:17;;;;;;;4.22;1.73;;;12.80;99.90;;;;;;5062431;28;20408;-70
2022/08/06 00:51:43;;;;;;;6.60;1.80;;;12.70;99.90;;;;;;5061513;28;20360;-70
2022/08/06 00:54:09;;;;;;;6.43;1.90;;;12.70;99.90;;;;;;5070925;28;20098;-70
2022/08/06 00:56:34;;;;;;;5.60;1.85;;;12.70;99.90;;;;;;5085256;28;20041;-70
2022/08/06 00:59:00;;;;;;;4.80;1.80;;;12.70;99.90;;;;;;5064941;28;20052;-70
2022/08/06 01:01:26;;;;;;;5.28;1.70;;;12.70;99.90;;;;;;5088902;28;20044;-70
2022/08/06 01:03:52;;;;;;;8.20;2.00;;;12.80;99.90;;;;;;5066756;28;20147;-70
2022/08/06 01:06:19;;;;;;;2.75;1.55;;;12.60;99.90;;;;;;5062204;28;20105;-70
2022/08/06 01:08:44;;;;;;;5.70;1.70;;;12.70;99.90;;;;;;5068073;28;20044;-70
2022/08/06 01:11:10;;;;;;;4.82;1.70;;;12.60;99.90;;;;;;5072060;28;20032;-70
2022/08/06 01:13:36;;;;;;;4.68;1.80;;;12.60;99.90;;;;;;5068827;28;20033;-70
2022/08/06 01:16:10;;;;;;;4.72;1.80;;;12.60;99.90;;;;;;5071395;28;20072;-70
2022/08/06 01:18:46;;;;;;;5.68;2.03;;;12.70;99.90;;;;;;5060429;28;20466;-70
2022/08/06 01:21:43;;;;;;;3.78;1.77;;;12.60;99.90;;;;;;5065151;28;20059;-70
2022/08/06 01:24:23;;;;;;;3.85;1.75;;;12.60;99.90;;;;;;5068792;28;20052;-70
2022/08/06 01:27:20;;;;;;;2.78;1.70;;;12.60;99.90;;;;;;5064438;28;20505;-70
2022/08/06 01:29:51;;;;;;;4.68;1.42;;;12.50;99.90;;;;;;5068470;28;20048;-70
2022/08/06 01:32:23;;;;;;;4.00;1.85;;;12.50;99.90;;;;;;5071706;28;20074;-70
2022/08/06 01:34:54;;;;;;;3.75;1.67;;;12.50;99.90;;;;;;5071255;28;20040;-70
2022/08/06 01:37:33;;;;;;;4.03;1.50;;;12.50;99.90;;;;;;5063519;28;20080;-70
2022/08/06 01:40:04;;;;;;;5.78;1.80;;;12.50;99.90;;;;;;5067282;28;20298;-70
2022/08/06 01:42:31;;;;;;;4.00;1.70;;;12.40;99.90;;;;;;5073014;28;20037;-70
2022/08/06 01:45:03;;;;;;;3.17;1.67;;;12.40;99.90;;;;;;5069159;28;20036;-70
2022/08/06 01:47:31;;;;;;;1.75;1.13;;;12.40;99.90;;;;;;5067503;28;20040;-70
2022/08/06 01:50:02;;;;;;;1.88;1.58;;;12.40;99.90;;;;;;5070735;28;20039;-70
2022/08/06 01:52:39;;;;;;;4.30;1.90;;;12.20;99.90;;;;;;5068037;28;20036;-70
2022/08/06 01:55:13;;;;;;;4.65;1.65;;;12.00;99.90;;;;;;5056701;28;20045;-70
2022/08/06 01:57:44;;;;;;;5.22;1.88;;;11.90;99.90;;;;;;5072060;28;20040;-70
2022/08/06 02:00:10;;;;;;;3.25;1.90;;;11.80;99.90;;;;;;5064536;28;20135;-70
2022/08/06 02:02:37;;;;;;;4.20;1.60;;;11.70;99.90;;;;;;5064067;28;20036;-70
2022/08/06 02:05:05;;;;;;;4.00;1.77;;;11.60;99.90;;;;;;5079998;28;20513;-70
2022/08/06 02:07:36;;;;;;;5.40;1.60;;;11.50;99.90;;;;;;5065709;28;20032;-70
2022/08/06 02:10:05;;;;;;;3.97;1.73;;;11.40;99.90;;;;;;5071728;28;20037;-70
2022/08/06 02:12:33;;;;;;;6.05;2.17;;;11.30;99.90;;;;;;5085700;28;20131;-70
2022/08/06 02:15:14;;;;;;;6.57;1.88;;;11.20;99.90;;;;;;5068335;28;20036;-70
2022/08/06 02:17:47;;;;;;;2.85;1.75;;;11.10;99.90;;;;;;5061943;28;20051;-70
2022/08/06 02:20:15;;;;;;;5.40;1.90;;;11.00;99.90;;;;;;5064521;28;20049;-70
2022/08/06 02:22:42;;;;;;;4.70;2.17;;;11.10;99.90;;;;;;5070334;28;20042;-70
2022/08/06 02:25:11;;;;;;;5.35;2.20;;;11.10;99.90;;;;;;5086713;28;20036;-70
2022/08/06 02:27:41;;;;;;;5.03;2.47;;;11.20;99.90;;;;;;5086374;28;20087;-70
2022/08/06 02:30:07;;;;;;;3.67;1.95;;;11.20;99.90;;;;;;5069538;28;20041;-70
2022/08/06 02:32:33;;;;;;;4.20;1.90;;;11.20;99.90;;;;;;5065086;28;20079;-70
2022/08/06 02:34:59;;;;;;;5.28;1.70;;;11.20;99.90;;;;;;5062653;28;20487;-70
2022/08/06 02:37:34;;;;;;;3.00;1.88;;;11.10;99.90;;;;;;5068054;28;20046;-70
2022/08/06 02:40:09;;;;;;;4.72;2.00;;;11.00;99.90;;;;;;5067925;28;20084;-70
2022/08/06 02:42:50;;;;;;;4.72;2.00;;;10.90;99.90;;;;;;5077008;28;20409;-70
2022/08/06 02:45:25;;;;;;;5.13;2.20;;;10.90;99.90;;;;;;5068349;28;20123;-70
2022/08/06 02:48:01;;;;;;;3.33;1.98;;;10.90;99.90;;;;;;5069708;28;21694;-70
2022/08/06 02:50:41;;;;;;;3.80;2.17;;;10.90;99.90;;;;;;5058337;28;20125;-70
2022/08/06 02:53:10;;;;;;;3.88;2.28;;;10.90;99.90;;;;;;5065590;28;20410;-70
2022/08/06 02:55:42;;;;;;;4.53;2.08;;;11.00;99.90;;;;;;5066667;28;20475;-70
2022/08/06 02:58:19;;;;;;;3.58;1.95;;;11.10;99.90;;;;;;5073825;28;20036;-70
2022/08/06 03:00:48;;;;;;;2.83;1.92;;;11.10;99.90;;;;;;5067922;28;20036;-70
2022/08/06 03:03:15;;;;;;;4.55;2.00;;;11.20;99.90;;;;;;5070301;28;20111;-70
2022/08/06 03:05:45;;;;;;;3.80;2.20;;;11.20;99.90;;;;;;5065974;28;20028;-70
2022/08/06 03:08:15;;;;;;;4.88;2.20;;;11.20;99.90;;;;;;5070439;28;20421;-70
2022/08/06 03:10:42;;;;;;;4.15;2.03;;;11.20;99.90;;;;;;5063725;28;20040;-70
2022/08/06 03:13:10;;;;;;;3.15;1.80;;;11.20;99.90;;;;;;5070693;28;20126;-70
2022/08/06 03:15:37;;;;;;;2.15;1.60;;;11.10;99.90;;;;;;5064080;28;20439;-70
2022/08/06 03:18:05;;;;;;;3.63;1.73;;;11.10;99.90;;;;;;5067664;28;20044;-70
2022/08/06 03:20:33;;;;;;;3.40;1.80;;;11.00;99.90;;;;;;5069317;28;20452;-70
2022/08/06 03:23:03;;;;;;;3.05;1.70;;;11.10;99.90;;;;;;5065651;28;20539;-70
2022/08/06 03:25:29;;;;;;;2.90;1.90;;;11.10;99.90;;;;;;5067246;28;20386;-70
2022/08/06 03:27:57;;;;;;;3.22;1.90;;;11.20;99.90;;;;;;5065850;28;20418;-70
2022/08/06 03:30:23;;;;;;;4.70;2.05;;;11.20;99.90;;;;;;5070402;28;20386;-70
2022/08/06 03:32:50;;;;;;;5.05;2.20;;;11.30;99.90;;;;;;5061423;28;20425;-70
2022/08/06 03:35:16;;;;;;;3.58;2.10;;;11.30;99.90;;;;;;5070579;28;20518;-70
2022/08/06 03:37:43;;;;;;;4.22;2.10;;;11.30;99.90;;;;;;5084059;28;20036;-70
2022/08/06 03:40:10;;;;;;;4.93;2.10;;;11.40;99.90;;;;;;5070819;28;20037;-70
2022/08/06 03:42:36;;;;;;;3.67;1.80;;;11.40;99.90;;;;;;5062482;28;20118;-70
2022/08/06 03:45:02;;;;;;;4.03;1.70;;;11.40;99.90;;;;;;5065965;28;20474;-70
2022/08/06 03:47:37;;;;;;;1.98;1.77;;;11.40;99.90;;;;;;5064007;28;20036;-70
2022/08/06 03:50:18;;;;;;;4.18;2.10;;;11.40;99.90;;;;;;5061820;28;20048;-70
2022/08/06 03:52:54;;;;;;;2.85;1.77;;;11.40;99.90;;;;;;5082517;28;20064;-70
2022/08/06 03:55:26;;;;;;;2.75;1.95;;;11.40;99.90;;;;;;5062801;28;20051;-70
2022/08/06 03:57:56;;;;;;;1.92;1.20;;;11.40;99.90;;;;;;5064618;28;20048;-70
2022/08/06 04:00:25;;;;;;;1.02;1.02;;;11.40;99.90;;;;;;5065317;28;20119;-70
2022/08/06 04:02:54;;;;;;;1.45;1.00;;;11.40;99.90;;;;;;5064721;28;20497;-70
2022/08/06 04:05:23;;;;;;;1.38;0.90;;;11.30;99.90;;;;;;5086816;28;20036;-70
2022/08/06 04:07:57;;;;;;;1.25;0.82;;;11.20;99.90;;;;;;5067622;28;20482;-70
2022/08/06 04:10:30;;;;;;;1.27;1.20;;;11.10;99.90;;;;;;5062800;28;20123;-70
2022/08/06 04:12:56;;;;;;;1.83;1.50;;;11.00;99.90;;;;;;5068102;28;20064;-70
2022/08/06 04:15:23;;;;;;;3.45;1.80;;;10.90;99.90;;;;;;5068244;28;20040;-70
2022/08/06 04:17:51;;;;;;;2.35;1.90;;;10.90;99.90;;;;;;5066494;28;20036;-70
2022/08/06 04:20:20;;;;;;;1.77;1.63;;;10.90;99.90;;;;;;5064671;28;20048;-70
2022/08/06 04:22:45;;;;;;;2.08;0.90;;;10.90;99.90;;;;;;5063915;28;20041;-70
2022/08/06 04:25:11;;;;;;;4.03;1.25;;;11.00;99.90;;;;;;5057477;28;20037;-70
2022/08/06 04:27:40;;;;;;;30.75;3.70;;;10.90;99.90;;;;;;5065463;28;20043;-70
2022/08/06 04:30:07;;;;;;;8.70;2.65;;;10.90;99.90;;;;;;5066931;28;20044;-70
2022/08/06 04:32:33;;;;;;;2.75;2.42;;;10.80;99.90;;;;;;5063736;28;20230;-70
2022/08/06 04:35:03;;;;;;;3.22;2.92;;;10.70;99.90;;;;;;5067993;28;20041;-70
2022/08/06 04:37:30;;;;;;;2.83;2.63;;;10.70;99.90;;;;;;5080283;28;20102;-70
2022/08/06 04:39:57;;;;;;;3.63;2.83;;;10.70;99.90;;;;;;5068764;28;20041;-70
2022/08/06 04:42:23;;;;;;;5.03;2.60;;;10.70;99.90;;;;;;5071526;28;20098;-70
2022/08/06 04:44:49;;;;;;;4.07;3.00;;;10.80;99.90;;;;;;5073369;28;20115;-70
2022/08/06 04:47:16;;;;;;;5.75;2.92;;;10.80;99.90;;;;;;5074159;28;20057;-70
2022/08/06 04:49:41;;;;;;;5.78;2.70;;;10.80;99.90;;;;;;5070812;28;20040;-70
2022/08/06 04:52:07;;;;;;;7.85;3.08;;;10.80;99.90;;;;;;5064024;28;20040;-70
2022/08/06 04:54:33;;;;;;;4.88;2.70;;;10.90;99.90;;;;;;5072321;28;20066;-70
2022/08/06 04:56:58;;;;;;;5.53;2.88;;;10.90;99.90;;;;;;5070605;28;20041;-70
2022/08/06 04:59:24;;;;;;;4.85;3.10;;;10.90;99.90;;;;;;5063694;28;20091;-70
2022/08/06 05:01:50;;;;;;;6.13;3.30;;;11.00;99.90;;;;;;5066245;28;20090;-70
2022/08/06 05:04:16;;;;;;;3.63;2.95;;;11.10;99.90;;;;;;5062272;28;20143;-70
2022/08/06 05:07:16;;;;;;;7.40;3.40;;;11.20;99.90;;;;;;5065085;28;20101;-70
2022/08/06 05:09:42;;;;;;;6.90;3.35;;;11.20;99.90;;;;;;5077637;28;20065;-70
2022/08/06 05:12:35;;;;;;;3.50;3.20;;;11.30;99.90;;;;;;5070561;28;20102;-70
2022/08/06 05:15:21;;;;;;;9.52;3.58;;;11.40;99.90;;;;;;5068346;28;20047;-70
2022/08/06 05:18:10;;;;;;;7.30;3.05;;;11.50;99.90;;;;;;5060937;28;20032;-70
2022/08/06 05:20:40;;;;;;;6.30;3.65;;;11.50;99.90;;;;;;5064596;28;20051;-70
2022/08/06 05:23:37;;;;;;;7.28;3.20;;;11.60;99.90;;;;;;5067861;28;20044;-70
2022/08/06 05:26:03;;;;;;;6.10;3.22;;;11.60;99.90;;;;;;5073394;28;20094;-70
2022/08/06 05:28:30;;;;;;;4.60;3.53;;;11.70;99.90;;;;;;5069967;28;20047;-70
2022/08/06 05:30:56;;;;;;;5.88;4.15;;;11.70;99.90;;;;;;5069134;28;20147;-70
2022/08/06 05:33:30;;;;;;;9.07;4.30;;;11.90;99.90;;;;;;5071597;28;20127;-70
2022/08/06 05:36:01;;;;;;;7.05;4.55;;;11.90;99.90;;;;;;5070870;28;20044;-70
2022/08/06 05:38:27;;;;;;;6.97;4.05;;;12.00;99.90;;;;;;5069078;28;20040;-70
2022/08/06 05:40:55;;;;;;;6.13;4.43;;;12.00;99.90;;;;;;5066276;28;20068;-70
2022/08/06 05:43:22;;;;;;;6.85;4.68;;;12.20;99.90;;;;;;5072233;28;20040;-70
2022/08/06 05:45:51;;;;;;;5.43;4.13;;;12.20;99.90;;;;;;5070791;28;20106;-70
2022/08/06 05:48:19;;;;;;;7.13;4.80;;;12.30;99.90;;;;;;5071905;28;20062;-70
2022/08/06 05:50:52;;;;;;;7.65;4.97;;;12.40;99.90;;;;;;5066270;28;20067;-70
2022/08/06 05:53:25;;;;;;;6.28;4.90;;;12.50;99.90;;;;;;5065753;28;20041;-70
2022/08/06 05:55:56;;;;;;;5.70;5.00;;;12.60;99.90;;;;;;5066566;28;20135;-70
2022/08/06 05:58:45;;;;;;;7.55;5.60;;;12.60;99.90;;;;;;5067246;28;20051;-70
2022/08/06 06:01:13;;;;;;;6.03;5.43;;;12.70;99.90;;;;;;5062178;28;20060;-70
2022/08/06 06:03:40;;;;;;;6.88;6.18;;;12.80;99.90;;;;;;5086822;28;20037;-70
2022/08/06 06:06:06;;;;;;;9.45;6.00;;;12.80;99.90;;;;;;5071850;28;20036;-70
2022/08/06 06:08:32;;;;;;;7.50;5.75;;;13.00;99.90;;;;;;5066905;28;20033;-70
2022/08/06 06:10:58;;;;;;;7.40;5.70;;;13.10;99.90;;;;;;5064943;28;20044;-70
2022/08/06 06:13:24;;;;;;;9.68;5.75;;;13.20;99.90;;;;;;5066991;28;20048;-70
2022/08/06 06:16:18;;;;;;;7.47;5.00;;;13.20;99.90;;;;;;5064481;28;20210;-69
2022/08/06 06:19:06;;;;;;;6.07;5.43;;;13.40;99.90;;;;;;5068153;28;20055;-71
2022/08/06 06:21:56;;;;;;;5.50;4.80;;;13.50;99.90;;;;;;5063702;28;20132;-70
2022/08/06 06:24:32;;;;;;;7.72;5.38;;;13.60;99.90;;;;;;5065802;28;20037;-71
2022/08/06 06:27:15;;;;;;;9.02;6.22;;;13.70;99.90;;;;;;5074066;28;20079;-70
2022/08/06 06:30:04;;;;;;;;;;;13.80;99.90;;;;;;5064590;28;20123;-70
2022/08/06 06:32:52;;;;;;;5.85;2.97;;;14.00;99.90;;;;;;5059788;28;20178;-70
2022/08/06 06:35:21;;;;;;;6.38;3.10;;;14.10;99.90;;;;;;5064772;28;20482;-70
2022/08/06 06:38:12;;;;;;;5.82;2.85;;;14.30;99.90;;;;;;5067985;28;20589;-70
2022/08/06 06:40:47;;;;;;;4.35;2.30;;;14.40;99.90;;;;;;5065387;28;20044;-70
2022/08/06 06:43:27;;;;;;;6.82;2.08;;;14.50;99.90;;;;;;5068176;28;20044;-70
2022/08/06 06:46:25;;;;;;;5.55;2.05;;;14.70;99.90;;;;;;5082670;28;20661;-71
2022/08/06 06:48:55;;;;;;;3.92;1.92;;;14.80;99.90;;;;;;5056328;28;20410;-71
2022/08/06 06:51:39;;;;;;;4.85;1.45;;;15.00;99.90;;;;;;5066028;28;20410;-70
2022/08/06 06:54:05;;;;;;;3.17;1.23;;;15.10;99.90;;;;;;5071742;28;20040;-73
2022/08/06 06:56:41;;;;;;;3.08;1.27;;;15.30;99.90;;;;;;5060059;28;20608;-73
2022/08/06 06:59:35;;;;;;;2.05;1.10;;;15.50;99.90;;;;;;5063731;28;20379;-73
2022/08/06 07:02:03;;;;;;;2.85;1.23;;;15.60;99.90;;;;;;5060809;28;20517;-70
2022/08/06 07:04:30;;;;;;;2.83;0.90;;;15.60;99.90;;;;;;5061794;28;20506;-70
2022/08/06 07:06:59;;;;;;;2.80;1.10;;;15.60;99.90;;;;;;5072094;28;20426;-70
2022/08/06 07:09:28;;;;;;;5.63;1.20;;;15.60;99.90;;;;;;5067836;28;20036;-70
2022/08/06 07:11:56;;;;;;;3.15;1.00;;;15.70;99.90;;;;;;5063138;28;20043;-70
2022/08/06 07:14:23;;;;;;;2.42;1.08;;;15.80;99.90;;;;;;5082976;28;20135;-70
2022/08/06 07:16:53;;;;;;;3.95;1.05;;;16.00;99.90;;;;;;5065079;28;20051;-70
2022/08/06 07:19:19;;;;;;;3.22;1.00;;;16.10;99.90;;;;;;5065692;28;20045;-71
2022/08/06 07:21:47;;;;;;;3.97;1.00;;;16.30;99.90;;;;;;5061343;28;20459;-71
2022/08/06 07:24:14;;;;;;;2.65;0.75;;;16.40;99.90;;;;;;5065836;28;22222;-71
2022/08/06 07:26:45;;;;;;;2.85;1.00;;;16.60;99.90;;;;;;5071736;28;20521;-71
2022/08/06 07:29:14;;;;;;;2.55;0.82;;;16.70;99.90;;;;;;5068825;28;20549;-75
2022/08/06 07:31:41;;;;;;;7.38;1.20;;;16.90;99.90;;;;;;5069028;28;20115;-76
2022/08/06 07:34:07;;;;;;;3.80;0.80;;;16.90;99.90;;;;;;5069334;28;20097;-76
2022/08/06 07:36:39;;;;;;;3.45;1.10;;;17.00;99.90;;;;;;5066290;28;20445;-76
2022/08/06 07:39:09;;;;;;;3.50;0.90;;;17.10;99.90;;;;;;5062556;28;20560;-75
2022/08/06 07:41:36;;;;;;;6.85;1.27;;;17.10;99.90;;;;;;5067045;28;20373;-76
2022/08/06 07:44:05;;;;;;;3.20;1.17;;;17.20;99.90;;;;;;5082075;28;20491;-76
2022/08/06 07:46:48;;;;;;;4.15;0.90;;;17.30;99.90;;;;;;5070051;28;20428;-75
2022/08/06 07:49:14;;;;;;;3.53;0.90;;;17.50;99.90;;;;;;5069684;28;20483;-76
2022/08/06 07:51:43;;;;;;;6.32;2.20;;;17.50;99.90;;;;;;5070103;28;20044;-77
2022/08/06 07:54:10;;;;;;;4.93;1.15;;;17.60;99.90;;;;;;5079095;28;20410;-77
2022/08/06 07:56:39;;;;;;;2.33;0.80;;;17.70;99.90;;;;;;5054491;28;20059;-77
2022/08/06 07:59:06;;;;;;;3.35;0.90;;;17.80;99.90;;;;;;5073485;28;20825;-77
2022/08/06 08:01:32;;;;;;;4.03;0.90;;;18.00;99.90;;;;;;5070039;28;20540;-76
2022/08/06 08:06:43;;;;;;;2.70;0.80;;;18.10;99.90;;;;;;5072276;28;20037;-76
2022/08/06 08:09:15;;;;;;;3.47;0.82;;;18.40;99.90;;;;;;5054278;28;20089;-75
2022/08/06 08:11:43;;;;;;;2.25;0.77;;;18.40;99.90;;;;;;5073094;28;20582;-74
2022/08/06 08:14:10;;;;;;;3.60;0.70;;;18.60;99.90;;;;;;5064231;28;20538;-74
2022/08/06 08:16:40;;;;;;;3.03;0.95;;;18.80;99.90;;;;;;5066394;28;20491;-75
2022/08/06 08:19:32;;;;;;;2.15;0.80;;;18.90;99.90;;;;;;5073387;28;20041;-73
2022/08/06 08:22:00;;;;;;;1.20;0.50;;;18.90;99.90;;;;;;5056186;28;20383;-73
2022/08/06 08:24:27;;;;;;;2.40;0.63;;;18.70;99.90;;;;;;5070754;28;20131;-76
2022/08/06 08:26:54;;;;;;;1.88;0.60;;;18.60;99.90;;;;;;5074640;28;20422;-76
2022/08/06 08:29:19;;;;;;;3.67;0.70;;;18.70;99.90;;;;;;5066878;28;20086;-77
2022/08/06 08:31:45;;;;;;;5.05;1.58;;;18.70;99.90;;;;;;5068080;28;20490;-75
2022/08/06 08:34:11;;;;;;;2.47;0.60;;;18.90;99.90;;;;;;5047874;28;22072;-73
2022/08/06 08:36:38;;;;;;;4.53;0.75;;;19.00;99.90;;;;;;5070824;28;20056;-71
2022/08/06 08:39:04;;;;;;;3.10;0.70;;;19.10;99.90;;;;;;5067958;28;20449;-74
2022/08/06 08:41:51;;;;;;;1.60;0.60;;;19.30;99.90;;;;;;5073428;28;20667;-72
2022/08/06 08:44:25;;;;;;;3.83;0.70;;;19.30;99.90;;;;;;5089569;28;20613;-73
2022/08/06 08:46:51;;;;;;;4.18;0.98;;;19.20;99.90;;;;;;5050233;28;20100;-73
2022/08/06 08:49:28;;;;;;;2.28;0.82;;;19.10;99.90;;;;;;5064381;28;20384;-70
2022/08/06 08:51:55;;;;;;;6.78;0.85;;;19.00;99.90;;;;;;5063008;28;20554;-71
2022/08/06 08:54:22;;;;;;;3.47;0.77;;;19.20;99.90;;;;;;5065260;28;20379;-72
2022/08/06 08:56:49;;;;;;;3.10;0.65;;;19.50;99.90;;;;;;5063752;28;20462;-72
2022/08/06 08:59:15;;;;;;;3.15;0.70;;;19.80;99.90;;;;;;5069214;28;20510;-72
2022/08/06 09:01:41;;;;;;;4.82;0.90;;;20.10;99.90;;;;;;5070500;28;20075;-72
2022/08/06 09:04:07;;;;;;;2.25;0.88;;;20.30;99.90;;;;;;5069864;28;20470;-71
2022/08/06 09:06:33;;;;;;;2.33;0.88;;;20.40;99.90;;;;;;5073611;28;20068;-71
2022/08/06 09:09:04;;;;;;;3.63;1.00;;;20.30;99.90;;;;;;5068769;28;20411;-71
2022/08/06 09:11:31;;;;;;;1.77;0.80;;;20.20;99.90;;;;;;5070702;28;20506;-70
2022/08/06 09:14:01;;;;;;;3.55;1.08;;;20.10;99.90;;;;;;5072008;28;20442;-69
2022/08/06 09:16:28;;;;;;;2.13;1.00;;;20.10;99.90;;;;;;5087522;28;20406;-69
2022/08/06 09:18:54;;;;;;;3.42;1.00;;;20.30;99.90;;;;;;5066001;28;20372;-70
2022/08/06 09:21:20;;;;;;;1.55;1.20;;;20.40;99.90;;;;;;5066925;28;20384;-70
2022/08/06 09:23:46;;;;;;;2.65;1.48;;;20.60;99.90;;;;;;5068760;28;20040;-69
2022/08/06 09:26:12;;;;;;;4.55;1.60;;;20.60;99.90;;;;;;5065449;28;20116;-71
2022/08/06 09:28:41;;;;;;;4.93;1.33;;;20.80;99.90;;;;;;5070524;28;20398;-71
2022/08/06 09:31:07;;;;;;;1.67;1.27;;;21.00;99.90;;;;;;5059530;28;20036;-70
2022/08/06 09:33:36;;;;;;;4.13;1.60;;;21.30;99.90;;;;;;5060950;28;20040;-70
2022/08/06 09:36:08;;;;;;;3.15;1.38;;;21.50;98.80;;;;;;5057003;28;20067;-70
2022/08/06 09:38:49;;;;;;;2.17;1.55;;;21.40;98.50;;;;;;5090099;28;20453;-69
2022/08/06 09:41:17;;;;;;;2.22;1.70;;;21.50;97.50;;;;;;5084906;28;20119;-70
2022/08/06 09:43:45;;;;;;;3.10;1.70;;;21.60;95.70;;;;;;5073108;28;20040;-70
2022/08/06 09:46:11;;;;;;;3.85;1.60;;;21.80;94.30;;;;;;5064765;28;20106;-70
2022/08/06 09:48:37;;;;;;;4.40;1.65;;;22.00;92.30;;;;;;5072220;28;20486;-70
2022/08/06 09:51:03;;;;;;;2.72;1.52;;;22.20;90.80;;;;;;5065237;28;20044;-70
2022/08/06 09:53:29;;;;;;;3.17;1.50;;;22.40;90.60;;;;;;5070088;28;20359;-70
2022/08/06 09:55:56;;;;;;;3.58;1.73;;;22.40;91.20;;;;;;5069208;28;20037;-70
2022/08/06 09:58:33;;;;;;;2.75;1.65;;;22.30;92.40;;;;;;5070448;28;20044;-70
2022/08/06 10:01:20;;;;;;;3.03;1.52;;;22.30;93.20;;;;;;5088496;28;20040;-70
2022/08/06 10:03:46;;;;;;;3.35;1.80;;;22.30;90.00;;;;;;5069063;28;20048;-70
2022/08/06 10:06:14;;;;;;;3.22;1.60;;;22.40;90.30;;;;;;5072593;28;20033;-70
2022/08/06 10:08:41;;;;;;;3.40;1.55;;;22.30;88.50;;;;;;5072780;28;20040;-70
2022/08/06 10:11:07;;;;;;;2.80;1.60;;;22.20;89.90;;;;;;5071756;28;20044;-70
2022/08/06 10:13:34;;;;;;;2.10;1.60;;;22.40;80.20;;;;;;5062662;28;20072;-70
2022/08/06 10:16:14;;;;;;;2.75;1.70;;;22.60;81.60;;;;;;5069293;28;20048;-70
2022/08/06 10:18:50;;;;;;;3.80;1.88;;;23.00;82.30;;;;;;5071325;28;20040;-70
2022/08/06 10:21:17;;;;;;;3.83;1.80;;;23.40;82.80;;;;;;5062968;28;20402;-70
2022/08/06 10:23:48;;;;;;;2.22;1.73;;;23.50;80.40;;;;;;5072414;28;20382;-70
2022/08/06 10:26:20;;;;;;;3.95;1.60;;;23.50;80.80;;;;;;5061422;28;20068;-70
2022/08/06 10:28:50;;;;;;;3.42;1.60;;;23.30;79.60;;;;;;5071048;28;20029;-71
2022/08/06 10:31:17;;;;;;;2.72;1.70;;;23.00;80.10;;;;;;5070591;28;20045;-70
2022/08/06 10:33:49;;;;;;;1.95;1.60;;;22.90;82.60;;;;;;5072648;28;20045;-71
2022/08/06 10:36:18;;;;;;;2.78;1.90;;;23.00;82.80;;;;;;5067990;28;20068;-70
2022/08/06 10:38:46;;;;;;;1.90;1.60;;;23.30;79.60;;;;;;5071041;28;20115;-70
2022/08/06 10:41:13;;;;;;;2.65;1.48;;;23.50;72.80;;;;;;5088308;28;20399;-70
2022/08/06 10:43:39;;;;;;;4.22;1.58;;;23.80;74.80;;;;;;5072359;28;20037;-71
2022/08/06 10:46:08;;;;;;;4.85;1.65;;;24.10;73.60;;;;;;5069812;28;20515;-70
2022/08/06 10:48:38;;;;;;;2.33;1.42;;;24.30;69.70;;;;;;5065756;28;20043;-70
2022/08/06 10:51:06;;;;;;;1.92;1.73;;;24.50;69.40;;;;;;5070732;28;20171;-70
2022/08/06 10:53:33;;;;;;;2.28;1.45;;;24.70;68.30;;;;;;5071836;28;20039;-71
2022/08/06 10:56:05;;;;;;;2.35;1.50;;;24.80;68.80;;;;;;5071853;28;20036;-70
2022/08/06 10:58:32;;;;;;;2.53;1.50;;;24.80;67.50;;;;;;5063129;28;20040;-70
2022/08/06 11:01:00;;;;;;;1.73;1.50;;;24.60;67.90;;;;;;5070671;28;20040;-70
2022/08/06 11:03:40;;;;;;;2.17;1.30;;;24.40;69.60;;;;;;5069859;28;20235;-70
2022/08/06 11:06:26;;;;;;;3.17;1.35;;;24.10;70.90;;;;;;5070553;28;20048;-70
2022/08/06 11:09:26;;;;;;;4.15;1.60;;;24.00;66.10;;;;;;5071418;28;20119;-70
2022/08/06 11:12:06;;;;;;;4.07;1.27;;;23.60;68.00;;;;;;5069720;28;20041;-71
2022/08/06 11:14:35;;;;;;;1.70;1.45;;;23.30;68.70;;;;;;5070787;28;20095;-70
2022/08/06 11:17:01;;;;;;;5.22;1.45;;;23.10;71.00;;;;;;5071654;28;20055;-70
2022/08/06 11:19:39;;;;;;;2.90;1.40;;;22.90;72.70;;;;;;5070240;28;20052;-70
2022/08/06 11:22:05;;;;;;;3.38;1.58;;;22.80;76.80;;;;;;5060630;28;20043;-70
2022/08/06 11:24:31;;;;;;;2.55;1.30;;;22.70;77.90;;;;;;5066259;28;20032;-70
2022/08/06 11:26:57;;;;;;;4.97;1.40;;;22.60;79.30;;;;;;5069721;28;20173;-70
2022/08/06 11:29:23;;;;;;;2.35;1.40;;;22.50;77.60;;;;;;5064372;28;20115;-70
2022/08/06 11:31:50;;;;;;;1.92;1.30;;;22.40;78.10;;;;;;5064767;28;20048;-70
2022/08/06 11:34:19;;;;;;;3.83;1.48;;;22.30;78.60;;;;;;5069298;28;20055;-70
2022/08/06 11:36:50;;;;;;;2.90;1.40;;;22.30;79.50;;;;;;5069645;28;20111;-70
2022/08/06 11:39:20;;;;;;;1.77;1.23;;;22.20;76.90;;;;;;5066650;28;20056;-71
2022/08/06 11:41:51;;;;;;;3.63;1.60;;;22.20;77.40;;;;;;5067975;28;20052;-70
2022/08/06 11:44:27;;;;;;;4.85;1.73;;;22.10;78.20;;;;;;5066635;28;20114;-71
2022/08/06 11:47:06;;;;;;;3.40;1.40;;;22.10;78.30;;;;;;5068021;28;20037;-70
2022/08/06 11:49:41;;;;;;;2.20;1.42;;;22.10;77.90;;;;;;5068009;28;20124;-71
2022/08/06 11:52:07;;;;;;;2.33;1.48;;;22.10;77.50;;;;;;5071073;28;20127;-70
2022/08/06 11:54:36;;;;;;;2.47;1.50;;;22.10;74.60;;;;;;5074432;28;20044;-71
2022/08/06 11:57:02;;;;;;;2.17;1.60;;;22.00;77.40;;;;;;5063768;28;20048;-70
2022/08/06 11:59:31;;;;;;;2.85;1.52;;;22.00;79.20;;;;;;5068343;28;20041;-70
2022/08/06 12:01:59;;;;;;;4.65;1.52;;;22.00;79.80;;;;;;5063877;28;20128;-70
2022/08/06 12:04:46;;;;;;;3.63;1.38;;;22.10;75.60;;;;;;5067450;28;20052;-70
2022/08/06 12:07:27;;;;;;;1.98;1.30;;;22.20;75.90;;;;;;5069768;28;20071;-70
2022/08/06 12:10:05;;;;;;;2.88;1.73;;;22.10;78.60;;;;;;5059702;28;20084;-70
2022/08/06 12:12:37;;;;;;;5.50;1.40;;;22.20;79.60;;;;;;5075890;28;20043;-69
2022/08/06 12:15:12;;;;;;;;;;;22.30;79.60;;;;;;5065180;28;20072;-70
2022/08/06 12:17:40;;;;;;;298.13;58.08;;;22.30;79.30;;;;;;5067057;28;19924;-71
2022/08/06 12:20:07;;;;;;;12.23;3.17;;;22.30;80.80;;;;;;5066353;28;20128;-71
2022/08/06 12:22:35;;;;;;;11.55;3.30;;;22.50;79.50;;;;;;5060991;28;20045;-70
2022/08/06 12:25:06;;;;;;;6.72;2.40;;;22.60;79.60;;;;;;5064192;28;20044;-70
2022/08/06 12:27:33;;;;;;;7.15;1.80;;;22.80;81.40;;;;;;5072484;28;20029;-70
2022/08/06 12:30:01;;;;;;;2.17;1.50;;;23.00;77.90;;;;;;5066006;28;20437;-70
2022/08/06 12:32:28;;;;;;;3.38;1.70;;;23.10;77.20;;;;;;5073142;28;20123;-70
2022/08/06 12:34:57;;;;;;;3.17;1.40;;;23.10;78.20;;;;;;5076657;28;20085;-71
2022/08/06 12:37:34;;;;;;;6.38;1.85;;;23.30;78.50;;;;;;5068542;28;20044;-71
2022/08/06 12:42:45;;;;;;;29.45;7.38;;;23.80;75.00;;;;;;5066103;28;20139;-71
2022/08/06 12:45:11;;;;;;;8.02;3.00;;;24.10;76.70;;;;;;5067477;28;20123;-72
2022/08/06 12:47:36;;;;;;;7.97;2.45;;;24.50;75.70;;;;;;5070009;28;20036;-72
2022/08/06 12:50:19;;;;;;;17.25;5.30;;;24.90;74.30;;;;;;5065448;28;20044;-71
2022/08/06 12:53:08;;;;;;;12.25;3.10;;;25.10;72.90;;;;;;5072611;28;20040;-72
2022/08/06 12:55:43;;;;;;;61.10;13.25;;;25.30;72.70;;;;;;5083906;28;20036;-70
2022/08/06 12:58:11;;;;;;;16.52;5.00;;;25.20;69.70;;;;;;5070916;28;20421;-71
2022/08/06 13:00:39;;;;;;;12.93;4.45;;;25.00;69.70;;;;;;5071288;28;20036;-71
2022/08/06 13:03:06;;;;;;;4.25;2.00;;;24.90;70.70;;;;;;5070522;28;21000;-71
2022/08/06 13:05:33;;;;;;;6.63;2.28;;;24.70;70.70;;;;;;5080765;28;20048;-71
2022/08/06 13:08:00;;;;;;;11.25;3.45;;;24.40;70.30;;;;;;5060139;28;20066;-70
2022/08/06 13:10:26;;;;;;;9.48;3.20;;;24.10;69.10;;;;;;5067280;28;20033;-71